createdAt,value
2023-12-14T00:01:18.549Z,150291.44
2023-12-14T00:03:20.164Z,150260.00
2023-12-14T00:05:21.652Z,150292.72
2023-12-14T00:07:23.072Z,150282.66
2023-12-14T00:09:24.777Z,150232.28
2023-12-14T00:11:26.225Z,150248.69
2023-12-14T00:13:27.915Z,150317.88
2023-12-14T00:15:29.597Z,150296.50
2023-12-14T00:17:31.138Z,150320.41
2023-12-14T00:19:32.631Z,150310.38
2023-12-14T00:21:34.342Z,150299.00
2023-12-14T00:23:35.799Z,150242.38
2023-12-14T00:25:37.282Z,150215.94
2023-12-14T00:27:38.949Z,150251.16
2023-12-14T00:29:40.399Z,150258.75
2023-12-14T00:31:41.822Z,150239.88
2023-12-14T00:33:43.401Z,150187.03
2023-12-14T00:35:44.883Z,150251.16
2023-12-14T00:37:46.346Z,150233.56
2023-12-14T00:39:47.929Z,150204.66
2023-12-14T00:41:49.373Z,150247.44
2023-12-14T00:43:50.822Z,150261.25
2023-12-14T00:45:52.385Z,150247.44
2023-12-14T00:47:53.844Z,150267.56
2023-12-14T00:49:55.298Z,150283.91
2023-12-14T00:51:56.807Z,150311.59
2023-12-14T00:53:58.246Z,150307.84
2023-12-14T00:55:59.747Z,150252.44
2023-12-14T00:58:01.478Z,150232.28
2023-12-14T01:00:03.116Z,150208.38
2023-12-14T01:02:04.921Z,150270.03
2023-12-14T01:04:06.577Z,150268.81
2023-12-14T01:06:08.089Z,150327.97
2023-12-14T01:08:09.712Z,150320.41
2023-12-14T01:10:11.371Z,150312.84
2023-12-14T01:12:12.861Z,150317.88
2023-12-14T01:14:14.465Z,150317.88
2023-12-14T01:16:16.045Z,150299.00
2023-12-14T01:18:17.524Z,150332.97
2023-12-14T01:20:18.988Z,150345.59
2023-12-14T01:22:20.557Z,150349.38
2023-12-14T01:24:22.282Z,150335.50
2023-12-14T01:26:23.728Z,150292.72
2023-12-14T01:28:25.153Z,150267.56
2023-12-14T01:30:27.050Z,150210.91
2023-12-14T01:32:28.531Z,150243.66
2023-12-14T01:34:30.011Z,150208.38
2023-12-14T01:36:31.681Z,150068.75
2023-12-14T01:38:33.147Z,150144.25
2023-12-14T01:40:34.634Z,150166.91
2023-12-14T01:42:36.717Z,150175.69
2023-12-14T01:44:38.359Z,150189.50
2023-12-14T01:46:39.821Z,150184.50
2023-12-14T01:48:41.330Z,150119.06
2023-12-14T01:50:42.795Z,150161.84
2023-12-14T01:52:44.268Z,150111.50
2023-12-14T01:54:45.976Z,150146.72
2023-12-14T01:56:47.409Z,150087.59
2023-12-14T01:58:48.851Z,150111.50
2023-12-14T02:01:25.983Z,150170.63
2023-12-14T02:03:27.545Z,150160.59
2023-12-14T02:05:29.172Z,150137.94
2023-12-14T02:07:30.818Z,150105.25
2023-12-14T02:09:32.261Z,150127.84
2023-12-14T02:11:33.912Z,150117.81
2023-12-14T02:13:35.693Z,150100.22
2023-12-14T02:15:37.398Z,150051.13
2023-12-14T02:17:38.880Z,150096.44
2023-12-14T02:19:40.583Z,150081.34
2023-12-14T02:21:42.160Z,150093.91
2023-12-14T02:23:45.297Z,150109.00
2023-12-14T02:25:46.976Z,150058.72
2023-12-14T02:27:48.874Z,150088.88
2023-12-14T02:29:50.344Z,150104.00
2023-12-14T02:31:52.034Z,150111.50
2023-12-14T02:33:53.781Z,150073.78
2023-12-14T02:35:55.376Z,150143.00
2023-12-14T02:37:57.031Z,150144.25
2023-12-14T02:39:58.992Z,150087.59
2023-12-14T02:42:00.417Z,150111.50
2023-12-14T02:44:02.223Z,150129.13
2023-12-14T02:46:04.157Z,150096.44
2023-12-14T02:48:06.008Z,150088.88
2023-12-14T02:50:07.937Z,150075.03
2023-12-14T02:52:09.472Z,150066.22
2023-12-14T02:54:10.937Z,150131.63
2023-12-14T02:56:12.581Z,150139.22
2023-12-14T02:58:14.100Z,150154.28
2023-12-14T03:00:15.639Z,150083.88
2023-12-14T03:02:17.393Z,150100.22
2023-12-14T03:04:18.852Z,150144.25
2023-12-14T03:06:20.354Z,150151.78
2023-12-14T03:08:22.082Z,150098.94
2023-12-14T03:10:23.526Z,150088.88
2023-12-14T03:12:24.982Z,150160.59
2023-12-14T03:14:26.677Z,150143.00
2023-12-14T03:16:28.281Z,150154.28
2023-12-14T03:18:29.828Z,150036.06
2023-12-14T03:20:31.509Z,150077.56
2023-12-14T03:22:33.274Z,150052.41
2023-12-14T03:24:35.550Z,150104.00
2023-12-14T03:26:37.258Z,150166.91
2023-12-14T03:28:38.764Z,150156.81
2023-12-14T03:30:40.304Z,150160.59
2023-12-14T03:32:42.420Z,150132.91
2023-12-14T03:34:44.131Z,150120.34
2023-12-14T03:36:45.581Z,150110.25
2023-12-14T03:38:47.325Z,150139.22
2023-12-14T03:40:48.865Z,150041.09
2023-12-14T03:42:50.395Z,150120.34
2023-12-14T03:44:51.837Z,150068.75
2023-12-14T03:46:53.338Z,150082.63
2023-12-14T03:48:54.821Z,150131.63
2023-12-14T03:50:56.446Z,150073.78
2023-12-14T03:52:57.906Z,150077.56
2023-12-14T03:54:59.339Z,150114.03
2023-12-14T03:57:00.930Z,150136.69
2023-12-14T03:59:02.467Z,150134.16
2023-12-14T04:01:04.173Z,150095.16
2023-12-14T04:03:06.002Z,150053.66
2023-12-14T04:05:08.812Z,150085.13
2023-12-14T04:07:10.363Z,150156.81
2023-12-14T04:09:11.881Z,150122.88
2023-12-14T04:11:13.433Z,150144.25
2023-12-14T04:13:15.030Z,150129.13
2023-12-14T04:15:16.624Z,150101.47
2023-12-14T04:17:18.218Z,150088.88
2023-12-14T04:19:19.698Z,150115.31
2023-12-14T04:21:21.331Z,150173.16
2023-12-14T04:23:22.806Z,150192.03
2023-12-14T04:25:24.286Z,150217.22
2023-12-14T04:27:25.742Z,150187.03
2023-12-14T04:29:27.708Z,150234.81
2023-12-14T04:31:29.135Z,150242.38
2023-12-14T04:33:30.826Z,150249.91
2023-12-14T04:35:32.307Z,150231.03
2023-12-14T04:37:33.839Z,150192.03
2023-12-14T04:39:35.528Z,150078.81
2023-12-14T04:41:37.385Z,150092.66
2023-12-14T04:43:38.852Z,150087.59
2023-12-14T04:45:40.402Z,150150.50
2023-12-14T04:47:42.001Z,150115.31
2023-12-14T04:49:43.476Z,150146.72
2023-12-14T04:51:45.350Z,150127.84
2023-12-14T04:53:46.862Z,150139.22
2023-12-14T04:55:48.391Z,150127.84
2023-12-14T04:57:50.487Z,150164.38
2023-12-14T04:59:51.929Z,150149.25
2023-12-14T05:01:53.359Z,150111.50
2023-12-14T05:03:55.084Z,150127.84
2023-12-14T05:05:56.564Z,150086.34
2023-12-14T05:07:58.954Z,150112.78
2023-12-14T05:10:00.716Z,150144.25
2023-12-14T05:12:02.143Z,150171.91
2023-12-14T05:14:03.864Z,150137.94
2023-12-14T05:16:05.510Z,150174.41
2023-12-14T05:18:07.237Z,150095.16
2023-12-14T05:20:09.624Z,150076.31
2023-12-14T05:22:11.081Z,150117.81
2023-12-14T05:24:12.506Z,150166.91
2023-12-14T05:26:14.027Z,150127.84
2023-12-14T05:28:15.533Z,150083.88
2023-12-14T05:30:17.191Z,150064.97
2023-12-14T05:32:19.157Z,150041.09
2023-12-14T05:34:20.666Z,150088.88
2023-12-14T05:36:22.146Z,150043.63
2023-12-14T05:38:23.673Z,150090.13
2023-12-14T05:40:25.311Z,150116.56
2023-12-14T05:42:26.753Z,150067.47
2023-12-14T05:44:28.821Z,150090.13
2023-12-14T05:46:30.290Z,150085.13
2023-12-14T05:48:31.924Z,150038.59
2023-12-14T05:50:33.576Z,149997.09
2023-12-14T05:52:35.380Z,150081.34
2023-12-14T05:54:37.812Z,150081.34
2023-12-14T05:56:40.463Z,150041.09
2023-12-14T05:58:42.030Z,150033.53
2023-12-14T06:00:43.525Z,150018.47
2023-12-14T06:02:45.157Z,150078.81
2023-12-14T06:04:46.647Z,150093.91
2023-12-14T06:06:48.093Z,150145.50
2023-12-14T06:08:49.763Z,150111.50
2023-12-14T06:10:51.245Z,150023.50
2023-12-14T06:12:52.736Z,150083.88
2023-12-14T06:14:54.456Z,150139.22
2023-12-14T06:16:56.458Z,150160.59
2023-12-14T06:18:58.304Z,150189.50
2023-12-14T06:20:59.929Z,150207.16
2023-12-14T06:23:01.431Z,150217.22
2023-12-14T06:25:03.014Z,150236.09
2023-12-14T06:27:04.647Z,150156.81
2023-12-14T06:29:06.149Z,150187.03
2023-12-14T06:31:13.405Z,150136.69
2023-12-14T06:33:14.983Z,150171.91
2023-12-14T06:35:16.512Z,150192.03
2023-12-14T06:37:18.040Z,150179.47
2023-12-14T06:39:20.789Z,150144.25
2023-12-14T06:41:23.534Z,150175.69
2023-12-14T06:43:25.212Z,150136.69
2023-12-14T06:45:26.697Z,150179.47
2023-12-14T06:47:28.269Z,150083.88
2023-12-14T06:49:29.777Z,150093.91
2023-12-14T06:51:31.369Z,150078.81
2023-12-14T06:53:33.501Z,150063.75
2023-12-14T06:55:35.021Z,150048.63
2023-12-14T06:57:36.565Z,150022.25
2023-12-14T06:59:38.001Z,150052.41
2023-12-14T07:01:39.470Z,149968.13
2023-12-14T07:03:42.185Z,150080.09
2023-12-14T07:05:43.658Z,150063.75
2023-12-14T07:07:45.127Z,150058.72
2023-12-14T07:09:46.801Z,150073.78
2023-12-14T07:11:48.311Z,150062.47
2023-12-14T07:13:49.856Z,150081.34
2023-12-14T07:15:52.445Z,150027.22
2023-12-14T07:17:54.052Z,150013.41
2023-12-14T07:19:58.046Z,150034.81
2023-12-14T07:22:01.462Z,150095.16
2023-12-14T07:24:02.916Z,150088.88
2023-12-14T07:26:07.040Z,150136.69
2023-12-14T07:28:10.460Z,150083.88
2023-12-14T07:30:12.276Z,150066.22
2023-12-14T07:32:13.877Z,150027.22
2023-12-14T07:34:15.589Z,150076.31
2023-12-14T07:36:17.076Z,150073.78
2023-12-14T07:38:18.586Z,150095.16
2023-12-14T07:40:20.220Z,150085.13
2023-12-14T07:42:21.645Z,150086.34
2023-12-14T07:44:23.149Z,150111.50
2023-12-14T07:46:24.922Z,150116.56
2023-12-14T07:48:26.435Z,150029.75
2023-12-14T07:50:28.001Z,150068.75
2023-12-14T07:52:29.447Z,150070.00
2023-12-14T07:54:30.896Z,150068.75
2023-12-14T07:56:32.381Z,150116.56
2023-12-14T07:58:34.181Z,150129.13
2023-12-14T08:00:35.677Z,150076.31
2023-12-14T08:02:37.887Z,150111.50
2023-12-14T08:04:39.531Z,150023.50
2023-12-14T08:06:41.057Z,150020.97
2023-12-14T08:08:42.503Z,149993.31
2023-12-14T08:10:44.049Z,150002.13
2023-12-14T08:12:45.539Z,150018.47
2023-12-14T08:14:46.965Z,150000.88
2023-12-14T08:16:48.584Z,150002.13
2023-12-14T08:18:50.122Z,150009.63
2023-12-14T08:20:51.759Z,150009.63
2023-12-14T08:22:53.415Z,149974.44
2023-12-14T08:24:55.233Z,149995.81
2023-12-14T08:26:56.814Z,150002.13
2023-12-14T08:28:58.436Z,150008.38
2023-12-14T08:30:59.985Z,150034.81
2023-12-14T08:33:01.550Z,150124.13
2023-12-14T08:35:03.707Z,150095.16
2023-12-14T08:37:05.155Z,150112.78
2023-12-14T08:39:06.603Z,150033.53
2023-12-14T08:41:08.744Z,150015.94
2023-12-14T08:43:10.287Z,150068.75
2023-12-14T08:45:11.950Z,149994.56
2023-12-14T08:47:13.676Z,150046.09
2023-12-14T08:49:15.238Z,150047.38
2023-12-14T08:51:16.811Z,150085.13
2023-12-14T08:53:18.486Z,150106.47
2023-12-14T08:55:20.094Z,150059.97
2023-12-14T08:57:21.516Z,150071.25
2023-12-14T08:59:23.165Z,150150.50
2023-12-14T09:01:24.749Z,150171.91
2023-12-14T09:03:26.260Z,150160.59
2023-12-14T09:05:28.299Z,150154.28
2023-12-14T09:07:29.807Z,150083.88
2023-12-14T09:09:31.353Z,150144.25
2023-12-14T09:11:32.849Z,150063.75
2023-12-14T09:13:34.366Z,150098.94
2023-12-14T09:15:36.563Z,150073.78
2023-12-14T09:17:38.590Z,150122.88
2023-12-14T09:19:40.246Z,150109.00
2023-12-14T09:21:46.563Z,150212.16
2023-12-14T09:23:48.665Z,150228.50
2023-12-14T09:25:50.186Z,150183.25
2023-12-14T09:27:51.651Z,150248.69
2023-12-14T09:29:53.173Z,150231.03
2023-12-14T09:31:54.841Z,150242.38
2023-12-14T09:33:56.434Z,150254.94
2023-12-14T09:35:58.088Z,150270.03
2023-12-14T09:37:59.526Z,150257.47
2023-12-14T09:40:00.981Z,150251.16
2023-12-14T09:42:07.017Z,150310.38
2023-12-14T09:44:08.705Z,150306.59
2023-12-14T09:46:11.166Z,150285.19
2023-12-14T09:48:13.363Z,150315.38
2023-12-14T09:50:14.909Z,150222.25
2023-12-14T09:52:16.366Z,150243.66
2023-12-14T09:54:18.007Z,150265.03
2023-12-14T09:56:19.488Z,150261.25
2023-12-14T09:58:21.267Z,150217.22
2023-12-14T10:00:36.456Z,150234.81
2023-12-14T10:02:38.321Z,150212.16
2023-12-14T10:04:40.111Z,150229.78
2023-12-14T10:06:43.711Z,150194.56
2023-12-14T10:08:55.684Z,150194.56
2023-12-14T10:10:57.477Z,150161.84
2023-12-14T10:12:59.134Z,150202.13
2023-12-14T10:15:03.981Z,150203.38
2023-12-14T10:17:20.254Z,150268.81
2023-12-14T10:19:22.246Z,150252.44
2023-12-14T10:21:24.846Z,150295.22
2023-12-14T10:23:28.439Z,150300.28
2023-12-14T10:25:30.095Z,150355.66
2023-12-14T10:27:32.449Z,150331.72
2023-12-14T10:29:34.576Z,150237.34
2023-12-14T10:31:37.267Z,150210.91
2023-12-14T10:33:38.822Z,150212.16
2023-12-14T10:35:40.331Z,150247.44
2023-12-14T10:37:41.878Z,150267.56
2023-12-14T10:39:44.044Z,150165.63
2023-12-14T10:41:52.595Z,150222.25
2023-12-14T10:44:17.925Z,150226.03
2023-12-14T10:46:20.343Z,150229.78
2023-12-14T10:48:22.546Z,150194.56
2023-12-14T10:50:24.192Z,150158.06
2023-12-14T10:52:26.656Z,150127.84
2023-12-14T10:54:32.335Z,150083.88
2023-12-14T10:56:34.001Z,150039.84
2023-12-14T10:58:50.001Z,150018.47
2023-12-14T11:01:04.351Z,150080.09
2023-12-14T11:03:06.462Z,150015.94
2023-12-14T11:05:08.272Z,150002.13
2023-12-14T11:07:11.934Z,150014.69
2023-12-14T11:09:13.522Z,150031.03
2023-12-14T11:11:16.887Z,150076.31
2023-12-14T11:13:18.994Z,150122.88
2023-12-14T11:15:20.692Z,150115.31
2023-12-14T11:17:22.229Z,150068.75
2023-12-14T11:19:23.827Z,150054.91
2023-12-14T11:21:26.088Z,150064.97
2023-12-14T11:23:37.413Z,150081.34
2023-12-14T11:25:44.801Z,150033.53
2023-12-14T11:27:48.346Z,150031.03
2023-12-14T11:29:49.810Z,149988.25
2023-12-14T11:31:51.649Z,149983.22
2023-12-14T11:33:54.391Z,149954.31
2023-12-14T11:35:56.084Z,149959.38
2023-12-14T11:37:57.952Z,149938.00
2023-12-14T11:39:59.518Z,150038.59
2023-12-14T11:42:05.293Z,150056.19
2023-12-14T11:44:06.891Z,150056.19
2023-12-14T11:46:08.555Z,150027.22
2023-12-14T11:48:11.978Z,150005.84
2023-12-14T11:50:13.481Z,150038.59
2023-12-14T11:52:15.071Z,150028.50
2023-12-14T11:54:16.758Z,149975.69
2023-12-14T11:56:19.215Z,149948.03
2023-12-14T11:58:20.795Z,149925.38
2023-12-14T12:00:26.764Z,149922.88
2023-12-14T12:02:28.278Z,149895.25
2023-12-14T12:04:30.057Z,149922.88
2023-12-14T12:06:31.648Z,149881.38
2023-12-14T12:08:42.250Z,149921.66
2023-12-14T12:10:45.013Z,149863.78
2023-12-14T12:12:46.710Z,149897.75
2023-12-14T12:14:48.135Z,149885.16
2023-12-14T12:16:49.572Z,149904.00
2023-12-14T12:18:52.266Z,149895.25
2023-12-14T12:20:54.025Z,149890.19
2023-12-14T12:22:55.550Z,149912.84
2023-12-14T12:25:04.846Z,149945.50
2023-12-14T12:27:13.706Z,149896.50
2023-12-14T12:29:15.570Z,149887.69
2023-12-14T12:31:17.186Z,149942.97
2023-12-14T12:33:18.665Z,149848.72
2023-12-14T12:35:20.924Z,149917.88
2023-12-14T12:37:22.439Z,149951.81
2023-12-14T12:39:23.874Z,149955.59
2023-12-14T12:41:25.578Z,149958.09
2023-12-14T12:43:27.029Z,149958.09
2023-12-14T12:45:28.472Z,149922.88
2023-12-14T12:47:30.232Z,149886.44
2023-12-14T12:49:31.873Z,149935.47
2023-12-14T12:51:33.561Z,149920.41
2023-12-14T12:53:35.719Z,149900.28
2023-12-14T12:55:37.143Z,149945.50
2023-12-14T12:57:38.733Z,149953.06
2023-12-14T12:59:40.473Z,149948.03
2023-12-14T13:01:41.965Z,149915.34
2023-12-14T13:03:43.425Z,149922.88
2023-12-14T13:05:45.252Z,149853.75
2023-12-14T13:07:47.292Z,149910.31
2023-12-14T13:09:48.859Z,149936.72
2023-12-14T13:11:50.501Z,149883.91
2023-12-14T13:13:51.937Z,149885.16
2023-12-14T13:15:53.445Z,149942.97
2023-12-14T13:17:55.416Z,149863.78
2023-12-14T13:19:57.120Z,149855.03
2023-12-14T13:21:58.618Z,149901.50
2023-12-14T13:24:00.879Z,149915.34
2023-12-14T13:26:02.534Z,149877.66
2023-12-14T13:28:04.140Z,149915.34
2023-12-14T13:30:06.278Z,149886.44
2023-12-14T13:32:07.766Z,149915.34
2023-12-14T13:34:09.450Z,149942.97
2023-12-14T13:36:11.123Z,149890.19
2023-12-14T13:38:12.677Z,149893.97
2023-12-14T13:40:15.554Z,149886.44
2023-12-14T13:42:17.928Z,149851.25
2023-12-14T13:44:19.455Z,149846.19
2023-12-14T13:46:23.180Z,149856.28
2023-12-14T13:48:27.398Z,149897.75
2023-12-14T13:50:29.600Z,149823.56
2023-12-14T13:52:31.932Z,149809.78
2023-12-14T13:54:33.952Z,149775.84
2023-12-14T13:56:35.449Z,149867.56
2023-12-14T13:58:36.919Z,149858.81
2023-12-14T14:00:38.903Z,149822.31
2023-12-14T14:02:40.408Z,149829.88
2023-12-14T14:04:41.873Z,149816.06
2023-12-14T14:06:43.429Z,149862.53
2023-12-14T14:08:44.891Z,149861.28
2023-12-14T14:10:46.705Z,149789.66
2023-12-14T14:12:48.389Z,149799.69
2023-12-14T14:14:49.847Z,149785.88
2023-12-14T14:16:51.339Z,149832.41
2023-12-14T14:18:53.073Z,149789.66
2023-12-14T14:20:54.542Z,149885.16
2023-12-14T14:22:56.025Z,149909.06
2023-12-14T14:24:57.714Z,149846.19
2023-12-14T14:26:59.400Z,149795.97
2023-12-14T14:31:02.745Z,149772.06
2023-12-14T14:33:04.368Z,149743.16
2023-12-14T14:35:06.506Z,149723.06
2023-12-14T14:37:08.208Z,149790.91
2023-12-14T14:39:09.626Z,149792.19
2023-12-14T14:41:11.118Z,149819.78
2023-12-14T14:43:12.746Z,149741.91
2023-12-14T14:45:14.361Z,149745.69
2023-12-14T14:47:16.100Z,149710.50
2023-12-14T14:49:18.076Z,149704.22
2023-12-14T14:51:19.586Z,149709.25
2023-12-14T14:53:21.500Z,149687.91
2023-12-14T14:55:23.126Z,149708.00
2023-12-14T14:57:24.613Z,149694.19
2023-12-14T14:59:26.075Z,149702.94
2023-12-14T15:01:27.810Z,149724.31
2023-12-14T15:03:29.346Z,149672.84
2023-12-14T15:05:30.863Z,149681.59
2023-12-14T15:07:32.583Z,149697.91
2023-12-14T15:09:34.025Z,149726.84
2023-12-14T15:11:35.468Z,149689.16
2023-12-14T15:13:37.244Z,149720.53
2023-12-14T15:15:38.698Z,149640.16
2023-12-14T15:17:40.288Z,149618.78
2023-12-14T15:19:41.833Z,149680.34
2023-12-14T15:21:43.269Z,149655.25
2023-12-14T15:23:45.040Z,149680.34
2023-12-14T15:25:46.709Z,149686.63
2023-12-14T15:27:48.398Z,149726.84
2023-12-14T15:29:49.819Z,149783.38
2023-12-14T15:31:51.509Z,149716.81
2023-12-14T15:33:53.051Z,149750.72
2023-12-14T15:35:54.566Z,149697.91
2023-12-14T15:37:56.307Z,149645.19
2023-12-14T15:39:57.758Z,149704.22
2023-12-14T15:41:59.232Z,149739.38
2023-12-14T15:44:01.017Z,149736.91
2023-12-14T15:46:02.470Z,149697.91
2023-12-14T15:48:04.203Z,149676.59
2023-12-14T15:50:06.238Z,149654.00
2023-12-14T15:52:07.719Z,149685.38
2023-12-14T15:54:09.290Z,149691.66
2023-12-14T15:56:10.985Z,149719.28
2023-12-14T15:58:12.769Z,149748.19
2023-12-14T16:00:14.868Z,149696.72
2023-12-14T16:02:16.463Z,149723.06
2023-12-14T16:04:18.060Z,149770.81
2023-12-14T16:06:19.570Z,149806.00
2023-12-14T16:08:21.662Z,149745.69
2023-12-14T16:10:23.173Z,149665.28
2023-12-14T16:12:24.627Z,149755.75
2023-12-14T16:14:26.196Z,149758.28
2023-12-14T16:16:27.651Z,149777.13
2023-12-14T16:18:29.149Z,149751.97
2023-12-14T16:20:30.915Z,149760.75
2023-12-14T16:22:32.443Z,149741.91
2023-12-14T16:24:33.901Z,149807.25
2023-12-14T16:26:35.520Z,149788.41
2023-12-14T16:28:37.086Z,149804.72
2023-12-14T16:30:38.540Z,149774.59
2023-12-14T16:32:40.652Z,149729.34
2023-12-14T16:34:42.410Z,149852.50
2023-12-14T16:36:48.342Z,149839.94
2023-12-14T16:38:49.958Z,149839.94
2023-12-14T16:40:51.506Z,149824.84
2023-12-14T16:42:52.962Z,149793.44
2023-12-14T16:44:54.422Z,149765.78
2023-12-14T16:46:55.995Z,149745.69
2023-12-14T16:48:58.122Z,149729.34
2023-12-14T16:51:04.523Z,149677.81
2023-12-14T16:53:11.285Z,149723.06
2023-12-14T16:55:13.297Z,149704.22
2023-12-14T16:57:14.994Z,149724.31
2023-12-14T16:59:16.500Z,149780.84
2023-12-14T17:01:17.933Z,149778.38
2023-12-14T17:03:19.461Z,149730.63
2023-12-14T17:05:20.960Z,149748.19
2023-12-14T17:07:22.402Z,149759.47
2023-12-14T17:09:23.829Z,149711.78
2023-12-14T17:11:25.369Z,149739.38
2023-12-14T17:13:26.903Z,149754.50
2023-12-14T17:15:28.611Z,149748.19
2023-12-14T17:17:30.051Z,149785.88
2023-12-14T17:19:31.509Z,149847.47
2023-12-14T17:21:33.122Z,149838.69
2023-12-14T17:23:34.702Z,149817.31
2023-12-14T17:25:36.119Z,149793.44
2023-12-14T17:27:37.860Z,149793.44
2023-12-14T17:29:39.636Z,149860.06
2023-12-14T17:31:41.227Z,149844.94
2023-12-14T17:33:43.596Z,149842.44
2023-12-14T17:35:45.351Z,149811.03
2023-12-14T17:37:46.816Z,149831.13
2023-12-14T17:39:48.480Z,149872.63
2023-12-14T17:41:49.915Z,149831.13
2023-12-14T17:43:53.430Z,149736.91
2023-12-14T17:45:55.476Z,149730.63
2023-12-14T17:47:56.928Z,149714.28
2023-12-14T17:49:58.430Z,149689.16
2023-12-14T17:51:59.954Z,149650.22
2023-12-14T17:54:01.406Z,149684.13
2023-12-14T17:56:03.051Z,149700.44
2023-12-14T17:58:04.665Z,149631.38
2023-12-14T18:00:06.745Z,149662.75
2023-12-14T18:02:08.226Z,149702.94
2023-12-14T18:04:09.754Z,149635.16
2023-12-14T18:06:11.263Z,149720.53
2023-12-14T18:08:12.786Z,149658.97
2023-12-14T18:10:14.504Z,149670.31
2023-12-14T18:12:15.943Z,149704.22
2023-12-14T18:14:17.463Z,149676.59
2023-12-14T18:16:19.139Z,149646.44
2023-12-14T18:18:20.914Z,149648.97
2023-12-14T18:20:22.649Z,149685.38
2023-12-14T18:22:24.181Z,149672.84
2023-12-14T18:24:25.678Z,149670.31
2023-12-14T18:26:27.267Z,149690.41
2023-12-14T18:28:29.025Z,149723.06
2023-12-14T18:30:30.789Z,149666.53
2023-12-14T18:32:32.360Z,149632.66
2023-12-14T18:34:36.257Z,149658.97
2023-12-14T18:36:37.703Z,149674.09
2023-12-14T18:38:39.194Z,149714.28
2023-12-14T18:40:40.752Z,149626.34
2023-12-14T18:42:42.192Z,149625.09
2023-12-14T18:44:44.139Z,149615.06
2023-12-14T18:46:45.799Z,149586.16
2023-12-14T18:48:47.365Z,149572.38
2023-12-14T18:50:48.868Z,149671.56
2023-12-14T18:52:50.532Z,149682.84
2023-12-14T18:54:52.027Z,149716.81
2023-12-14T18:56:56.624Z,149706.72
2023-12-14T18:58:58.325Z,149682.84
2023-12-14T19:00:59.767Z,149692.94
2023-12-14T19:03:03.662Z,149615.06
2023-12-14T19:05:08.168Z,149716.81
2023-12-14T19:07:09.675Z,149754.50
2023-12-14T19:09:11.223Z,149718.03
2023-12-14T19:11:20.367Z,149738.13
2023-12-14T19:13:21.846Z,149725.56
2023-12-14T19:15:23.380Z,149730.63
2023-12-14T19:17:24.974Z,149729.34
2023-12-14T19:19:28.936Z,149719.28
2023-12-14T19:21:30.841Z,149709.25
2023-12-14T19:23:32.661Z,149706.72
2023-12-14T19:25:34.153Z,149706.72
2023-12-14T19:27:36.920Z,149697.91
2023-12-14T19:29:38.657Z,149660.25
2023-12-14T19:31:40.185Z,149743.16
2023-12-14T19:33:42.210Z,149728.09
2023-12-14T19:35:44.240Z,149650.22
2023-12-14T19:37:45.719Z,149713.03
2023-12-14T19:39:47.180Z,149676.59
2023-12-14T19:41:48.782Z,149665.28
2023-12-14T19:43:50.322Z,149661.50
2023-12-14T19:45:51.824Z,149646.44
2023-12-14T19:47:53.497Z,149704.22
2023-12-14T19:49:55.395Z,149620.06
2023-12-14T19:51:57.619Z,149611.28
2023-12-14T19:53:59.141Z,149611.28
2023-12-14T19:56:00.816Z,149603.72
2023-12-14T19:58:02.256Z,149578.59
2023-12-14T20:00:04.769Z,149576.09
2023-12-14T20:02:07.193Z,149582.38
2023-12-14T20:04:10.774Z,149578.59
2023-12-14T20:06:22.676Z,149616.28
2023-12-14T20:08:24.255Z,149638.88
2023-12-14T20:10:25.718Z,149681.59
2023-12-14T20:12:27.236Z,149625.09
2023-12-14T20:14:28.756Z,149652.75
2023-12-14T20:16:30.242Z,149708.00
2023-12-14T20:18:31.869Z,149651.47
2023-12-14T20:20:33.574Z,149676.59
2023-12-14T20:22:35.085Z,149626.34
2023-12-14T20:24:36.598Z,149651.47
2023-12-14T20:26:38.178Z,149648.97
2023-12-14T20:28:39.602Z,149684.13
2023-12-14T20:30:46.484Z,149679.09
2023-12-14T20:32:48.094Z,149691.66
2023-12-14T20:34:49.552Z,149656.47
2023-12-14T20:36:51.112Z,149694.19
2023-12-14T20:38:52.558Z,149684.13
2023-12-14T20:40:54.034Z,149723.06
2023-12-14T20:42:55.688Z,149736.91
2023-12-14T20:44:57.112Z,149721.78
2023-12-14T20:46:58.603Z,149704.22
2023-12-14T20:49:00.321Z,149694.19
2023-12-14T20:51:01.845Z,149652.75
2023-12-14T20:53:03.357Z,149680.34
2023-12-14T20:55:05.188Z,149662.75
2023-12-14T20:57:06.621Z,149654.00
2023-12-14T20:59:08.126Z,149671.56
2023-12-14T21:01:09.803Z,149674.09
2023-12-14T21:03:11.469Z,149690.41
2023-12-14T21:05:13.051Z,149702.94
2023-12-14T21:07:14.696Z,149641.41
2023-12-14T21:09:16.119Z,149596.19
2023-12-14T21:11:17.575Z,149630.13
2023-12-14T21:13:19.188Z,149625.09
2023-12-14T21:15:20.746Z,149615.06
2023-12-14T21:17:22.373Z,149583.63
2023-12-14T21:19:24.193Z,149573.63
2023-12-14T21:21:25.684Z,149522.13
2023-12-14T21:23:27.188Z,149591.19
2023-12-14T21:25:28.760Z,149539.69
2023-12-14T21:27:30.363Z,149558.53
2023-12-14T21:29:31.838Z,149545.97
2023-12-14T21:31:33.523Z,149539.69
2023-12-14T21:33:35.365Z,149599.97
2023-12-14T21:35:36.971Z,149626.34
2023-12-14T21:37:40.527Z,149622.56
2023-12-14T21:39:42.561Z,149564.81
2023-12-14T21:41:43.982Z,149610.03
2023-12-14T21:43:45.487Z,149567.31
2023-12-14T21:45:46.933Z,149613.81
2023-12-14T21:47:48.566Z,149631.38
2023-12-14T21:49:50.325Z,149598.69
2023-12-14T21:51:52.563Z,149589.94
2023-12-14T21:53:54.022Z,149608.78
2023-12-14T21:55:55.660Z,149543.47
2023-12-14T21:57:57.140Z,149548.50
2023-12-14T21:59:58.557Z,149559.78
2023-12-14T22:02:00.195Z,149535.91
2023-12-14T22:04:01.653Z,149582.38
2023-12-14T22:06:03.286Z,149567.31
2023-12-14T22:08:05.094Z,149547.25
2023-12-14T22:10:07.299Z,149490.75
2023-12-14T22:12:08.829Z,149529.66
2023-12-14T22:14:10.457Z,149518.34
2023-12-14T22:16:11.905Z,149519.59
2023-12-14T22:18:13.390Z,149556.00
2023-12-14T22:20:15.066Z,149518.34
2023-12-14T22:22:16.541Z,149508.31
2023-12-14T22:24:18.200Z,149444.28
2023-12-14T22:26:19.828Z,149475.66
2023-12-14T22:28:21.271Z,149428.00
2023-12-14T22:30:22.800Z,149470.66
2023-12-14T22:32:24.493Z,149470.66
2023-12-14T22:34:26.384Z,149456.84
2023-12-14T22:36:28.022Z,149510.84
2023-12-14T22:38:29.662Z,149495.75
2023-12-14T22:40:31.831Z,149533.44
2023-12-14T22:42:33.281Z,149535.91
2023-12-14T22:44:34.793Z,149534.66
2023-12-14T22:46:42.474Z,149498.25
2023-12-14T22:48:44.127Z,149495.75
2023-12-14T22:50:45.591Z,149484.47
2023-12-14T22:52:47.074Z,149469.41
2023-12-14T22:54:48.647Z,149471.94
2023-12-14T22:56:50.124Z,149468.16
2023-12-14T22:58:52.967Z,149432.97
2023-12-14T23:00:54.578Z,149399.09
2023-12-14T23:02:56.022Z,149412.88
2023-12-14T23:04:57.474Z,149434.22
2023-12-14T23:06:59.561Z,149405.38
2023-12-14T23:09:01.864Z,149440.53
2023-12-14T23:11:03.530Z,149446.81
2023-12-14T23:13:05.104Z,149448.06
2023-12-14T23:15:07.470Z,149500.78